Bourton on the Water, United Kingdom
Current Conditions -  °F | °C
As of 8:50 AM on Friday 28 Nov 2014 (Local Time) from EGVN Reporting Station
Broken Clouds Broken Clouds  
Wind Chill: 10°   Ceiling: 1600
Heat Index: 10°   Visibility: 6mi
Dew Point:   Wind: 10mph
Humidity: 87%   Direction: 60°ENE
Pressure: 29.56"   Gusts: NA
Location:  51.87°N, 1.75°W
Report Text: EGVN 280850Z 06009KT 9999 BKN016 10/08 Q1001 WHT TEMPO 7000 HZ BKN014 GRN
Loading
Personal Weather Stations






























Interactive Weather Map New forecast layout! Learn more

10-Day Weather Forecast

Advertisements
Track Severe Weather on mobile